Time;durP1;ratioP1;P1;durP2;ratioP2;P2;SDS_P1;SDS_P2;PMS_P1;PMS_P2;Temp;Humidity;BMP_temperature;BMP_pressure;BME280_temperature;BME280_humidity;BME280_pressure;Samples;Min_cycle;Max_cycle;Signal;HPM_P1;HPM_P2
2021/11/18 00:01:31;;;;;;;41.22;22.13;;;6.30;99.90;;;6.30;80.05;101661.66;5034941;28;20178;-73
2021/11/18 00:04:09;;;;;;;40.13;19.65;;;6.30;99.90;;;6.30;79.89;101661.66;5035081;28;20209;-72
2021/11/18 00:06:37;;;;;;;35.67;22.02;;;6.30;99.90;;;6.30;79.91;101656.28;5010684;28;20670;-73
2021/11/18 00:09:09;;;;;;;34.33;23.52;;;6.30;99.90;;;6.29;80.25;101660.00;5037436;28;20189;-74
2021/11/18 00:11:38;;;;;;;43.90;23.85;;;6.30;99.90;;;6.33;79.86;101660.53;5045713;28;20189;-72
2021/11/18 00:14:08;;;;;;;40.88;20.77;;;6.30;99.90;;;6.29;79.91;101660.00;5042401;28;20244;-73
2021/11/18 00:16:38;;;;;;;35.70;22.92;;;6.30;99.90;;;6.35;79.70;101662.03;5043476;28;20168;-73
2021/11/18 00:19:07;;;;;;;43.10;20.30;;;6.40;99.90;;;6.30;80.18;101656.28;5034971;28;20178;-73
2021/11/18 00:21:40;;;;;;;32.25;20.90;;;6.30;99.90;;;6.33;79.74;101658.69;5034637;28;20193;-73
2021/11/18 00:24:13;;;;;;;38.03;22.52;;;6.30;99.90;;;6.23;80.09;101668.69;5035198;28;20685;-73
2021/11/18 00:26:44;;;;;;;38.33;21.52;;;6.30;99.90;;;6.23;80.26;101676.75;5036410;28;20170;-73
2021/11/18 00:29:13;;;;;;;31.30;19.40;;;6.30;99.90;;;6.11;80.54;101664.53;5036424;28;20276;-72
2021/11/18 00:31:41;;;;;;;48.33;21.92;;;6.20;99.90;;;6.13;80.24;101675.13;5029982;28;20182;-73
2021/11/18 00:34:10;;;;;;;32.90;19.65;;;6.20;99.90;;;6.15;79.94;101668.59;5048847;28;20289;-73
2021/11/18 00:36:39;;;;;;;33.17;22.35;;;6.20;99.90;;;6.06;80.20;101672.19;5048223;28;20185;-72
2021/11/18 00:39:08;;;;;;;42.05;19.40;;;6.10;99.90;;;6.12;80.31;101679.66;5049139;28;20182;-73
2021/11/18 00:41:37;;;;;;;29.42;19.73;;;6.20;99.90;;;6.07;79.96;101681.97;5037248;28;20185;-73
2021/11/18 00:44:07;;;;;;;32.42;20.55;;;6.10;99.90;;;6.07;80.07;101684.66;5032899;28;20756;-73
2021/11/18 00:46:36;;;;;;;35.58;20.75;;;6.10;99.90;;;5.97;80.22;101694.63;5033997;28;20268;-73
2021/11/18 00:49:06;;;;;;;40.35;19.20;;;6.10;99.90;;;6.07;79.85;101692.72;5036095;28;20670;-74
2021/11/18 00:51:36;;;;;;;47.22;21.48;;;6.10;99.90;;;5.95;80.25;101693.94;5038457;28;20798;-74
2021/11/18 00:54:07;;;;;;;36.20;19.55;;;6.00;99.90;;;5.99;80.49;101701.56;5021066;28;20213;-72
2021/11/18 00:56:36;;;;;;;31.95;17.50;;;6.00;99.90;;;6.00;80.03;101702.41;5032519;28;20733;-72
2021/11/18 00:59:10;;;;;;;30.40;17.60;;;6.00;99.90;;;5.94;80.42;101708.38;5015907;28;20194;-72
2021/11/18 01:01:43;;;;;;;33.70;19.35;;;6.00;99.90;;;5.96;80.26;101711.72;5033608;28;20201;-72
2021/11/18 01:04:15;;;;;;;33.60;20.05;;;6.00;99.90;;;5.93;80.78;101717.41;5015605;28;20221;-73
2021/11/18 01:06:44;;;;;;;33.05;18.27;;;6.00;99.90;;;5.98;80.11;101718.66;5015528;28;20201;-73
2021/11/18 01:09:13;;;;;;;32.25;18.73;;;6.00;99.90;;;5.93;80.39;101725.47;5015498;28;20193;-73
2021/11/18 01:11:43;;;;;;;46.55;20.02;;;6.00;99.90;;;5.97;80.32;101718.81;5032846;28;20654;-72
2021/11/18 01:14:16;;;;;;;30.33;17.85;;;6.00;99.90;;;5.90;80.56;101718.59;5015478;28;20220;-72
2021/11/18 01:16:47;;;;;;;43.47;18.55;;;6.00;99.90;;;5.86;80.60;101716.28;5015271;28;20213;-72
2021/11/18 01:19:19;;;;;;;38.97;19.52;;;6.00;99.90;;;5.90;80.70;101723.13;5033505;28;20626;-75
2021/11/18 01:21:50;;;;;;;45.25;21.70;;;6.00;99.90;;;5.84;80.66;101729.06;5015928;28;20193;-73
2021/11/18 01:24:20;;;;;;;31.00;19.80;;;5.90;99.90;;;5.94;80.91;101730.72;5015532;28;20232;-73
2021/11/18 01:27:08;;;;;;;31.45;19.23;;;6.00;99.90;;;5.89;80.50;101737.53;5032935;28;20180;-73
2021/11/18 01:29:38;;;;;;;37.08;20.38;;;5.90;99.90;;;5.92;80.42;101730.00;5015658;28;20189;-71
2021/11/18 01:32:07;;;;;;;35.97;18.88;;;6.00;99.90;;;5.91;80.75;101730.16;5015539;28;20201;-72
2021/11/18 01:34:40;;;;;;;35.17;19.48;;;5.90;99.90;;;5.84;80.54;101724.53;5015649;28;20686;-72
2021/11/18 01:37:08;;;;;;;30.45;18.25;;;5.90;99.90;;;5.97;80.35;101725.03;5033156;28;20217;-72
2021/11/18 01:39:38;;;;;;;37.20;17.90;;;6.00;99.90;;;5.87;80.68;101734.13;5015773;28;20181;-72
2021/11/18 01:42:07;;;;;;;31.88;19.52;;;5.90;99.90;;;5.97;80.22;101735.78;5015738;28;20200;-73
2021/11/18 01:44:41;;;;;;;33.60;19.17;;;6.00;99.90;;;6.03;80.23;101740.53;5031780;28;20245;-73
2021/11/18 01:47:14;;;;;;;31.83;17.80;;;6.00;99.90;;;6.09;79.65;101744.47;5015003;28;20728;-73
2021/11/18 01:49:47;;;;;;;29.98;17.30;;;6.10;99.90;;;6.01;80.26;101749.75;5015944;28;20284;-73
2021/11/18 01:52:21;;;;;;;34.28;17.27;;;6.00;99.90;;;6.11;79.78;101748.69;5032945;28;20200;-73
2021/11/18 01:54:52;;;;;;;32.33;18.50;;;6.10;99.90;;;6.11;79.55;101747.84;5017045;28;20536;-72
2021/11/18 01:57:27;;;;;;;26.98;16.35;;;6.10;99.90;;;6.13;79.57;101751.22;5018051;28;20243;-73
2021/11/18 02:00:13;;;;;;;29.35;18.10;;;6.10;99.90;;;6.05;79.50;101746.59;5015071;28;20216;-73
2021/11/18 02:02:47;;;;;;;28.02;16.52;;;6.10;99.90;;;6.03;79.57;101745.91;5034936;28;20671;-74
2021/11/18 02:05:24;;;;;;;33.83;17.40;;;6.10;99.90;;;6.02;79.58;101746.91;5036965;28;20188;-73
2021/11/18 02:07:57;;;;;;;32.78;17.52;;;6.10;99.90;;;5.93;80.01;101746.97;5020029;28;20280;-73
2021/11/18 02:10:35;;;;;;;31.45;18.20;;;6.00;99.90;;;5.86;80.25;101743.16;5019005;28;20279;-72
2021/11/18 02:13:06;;;;;;;29.25;17.08;;;5.90;99.90;;;5.80;80.38;101743.78;5018633;28;20216;-73
2021/11/18 02:15:41;;;;;;;29.40;16.60;;;5.90;99.90;;;5.72;80.50;101744.50;5033124;28;20194;-74
2021/11/18 02:18:17;;;;;;;31.55;18.98;;;5.80;99.90;;;5.78;80.49;101751.97;5014781;28;20208;-73
2021/11/18 02:20:52;;;;;;;29.88;18.52;;;5.80;99.90;;;5.83;80.56;101754.22;5015261;28;20632;-73
2021/11/18 02:23:23;;;;;;;37.40;18.58;;;5.80;99.90;;;5.83;80.55;101764.97;5014397;28;20267;-73
2021/11/18 02:25:56;;;;;;;36.40;18.35;;;5.90;99.90;;;5.86;80.29;101764.66;5014590;28;20185;-72
2021/11/18 02:28:30;;;;;;;34.67;18.05;;;5.90;99.90;;;5.94;80.41;101768.31;5014193;28;20201;-72
2021/11/18 02:31:05;;;;;;;38.92;17.88;;;5.90;99.90;;;5.99;80.14;101770.56;5014742;28;20618;-72
2021/11/18 02:33:35;;;;;;;43.05;17.55;;;6.00;99.90;;;6.17;79.93;101776.78;5031212;28;20716;-72
2021/11/18 02:36:05;;;;;;;35.78;18.45;;;6.10;99.90;;;6.25;79.73;101773.34;5014120;28;20220;-73
2021/11/18 02:38:34;;;;;;;27.42;17.30;;;6.20;99.90;;;6.32;79.02;101763.66;5014295;28;20212;-72
2021/11/18 02:41:16;;;;;;;38.17;17.48;;;6.20;99.90;;;6.37;78.61;101775.66;5030777;28;20618;-72
2021/11/18 02:43:46;;;;;;;34.78;17.95;;;6.30;99.90;;;6.32;79.17;101777.13;5014234;28;20566;-71
2021/11/18 02:46:16;;;;;;;32.95;15.63;;;6.30;99.90;;;6.29;78.93;101778.28;5013606;28;20213;-71
2021/11/18 02:48:46;;;;;;;30.80;16.27;;;6.30;99.90;;;6.21;79.37;101772.78;5013638;28;20635;-72
2021/11/18 02:51:23;;;;;;;38.63;18.23;;;6.20;99.90;;;6.19;78.98;101765.91;5016830;28;20197;-71
2021/11/18 02:53:55;;;;;;;30.27;15.77;;;6.20;99.90;;;6.12;79.43;101765.66;5017495;28;20216;-73
2021/11/18 02:56:28;;;;;;;35.88;18.90;;;6.20;99.90;;;6.11;79.48;101767.50;5016579;28;20213;-71
2021/11/18 02:58:57;;;;;;;36.28;17.20;;;6.20;99.90;;;6.07;79.70;101778.69;5017113;28;20197;-72
2021/11/18 03:01:30;;;;;;;36.70;17.27;;;6.10;99.90;;;6.09;79.58;101774.88;5035004;28;20666;-71
2021/11/18 03:04:02;;;;;;;38.78;17.42;;;6.10;99.90;;;6.26;79.06;101777.72;5033643;28;20224;-72
2021/11/18 03:06:32;;;;;;;34.42;16.75;;;6.20;99.90;;;6.29;78.94;101780.97;5017322;28;20251;-71
2021/11/18 03:09:01;;;;;;;29.15;16.10;;;6.30;99.90;;;6.24;79.06;101772.50;5034851;28;20592;-72
2021/11/18 03:11:31;;;;;;;37.80;18.02;;;6.30;99.90;;;6.26;79.04;101773.19;5034013;28;20678;-73
2021/11/18 03:14:00;;;;;;;30.02;17.58;;;6.30;99.90;;;6.25;78.80;101770.63;5013580;28;20228;-72
2021/11/18 03:16:40;;;;;;;32.92;17.95;;;6.20;99.90;;;6.13;79.10;101761.97;5031657;28;20206;-72
2021/11/18 03:19:09;;;;;;;29.92;18.73;;;6.20;99.90;;;6.20;79.15;101773.78;5021740;28;20278;-72
2021/11/18 03:21:40;;;;;;;27.45;16.33;;;6.20;99.90;;;6.15;78.95;101764.53;5038064;28;20277;-74
2021/11/18 03:24:09;;;;;;;34.53;18.02;;;6.20;99.90;;;6.09;79.27;101755.22;5037479;28;20216;-71
2021/11/18 03:26:38;;;;;;;32.33;17.20;;;6.10;99.90;;;6.13;79.51;101767.34;5017485;28;20201;-72
2021/11/18 03:29:19;;;;;;;33.95;16.88;;;6.10;99.90;;;6.16;79.29;101772.41;5016702;28;20296;-73
2021/11/18 03:31:49;;;;;;;31.70;18.83;;;6.10;99.90;;;6.09;79.50;101768.66;5017561;28;20240;-72
2021/11/18 03:34:29;;;;;;;40.05;18.90;;;6.10;99.90;;;6.04;79.40;101769.13;5017146;28;20312;-72
2021/11/18 03:37:00;;;;;;;24.40;16.25;;;6.10;99.90;;;6.06;79.33;101756.34;5017648;28;20205;-71
2021/11/18 03:39:30;;;;;;;31.20;16.17;;;6.10;99.90;;;6.05;79.23;101761.91;5017115;28;20185;-74
2021/11/18 03:42:07;;;;;;;42.20;17.13;;;6.10;99.90;;;6.10;79.41;101770.31;5035256;28;20185;-71
2021/11/18 03:44:37;;;;;;;50.03;17.02;;;6.10;99.90;;;6.06;79.74;101768.94;5017199;28;20217;-73
2021/11/18 03:47:11;;;;;;;39.75;17.02;;;6.00;99.90;;;6.00;79.44;101756.13;5034840;28;20177;-72
2021/11/18 03:49:45;;;;;;;36.00;17.70;;;6.00;99.90;;;5.91;79.79;101757.00;5017186;28;20280;-71
2021/11/18 03:52:17;;;;;;;34.88;16.73;;;6.00;99.90;;;5.90;79.96;101763.41;5016771;28;20200;-71
2021/11/18 03:54:47;;;;;;;28.48;17.42;;;5.90;99.90;;;5.91;80.03;101770.44;5016547;28;20284;-71
2021/11/18 03:57:18;;;;;;;32.75;16.75;;;5.90;99.90;;;5.90;79.94;101782.22;5016523;28;20213;-70
2021/11/18 03:59:56;;;;;;;29.17;18.23;;;5.90;99.90;;;5.87;80.28;101777.13;5016596;28;20197;-71
2021/11/18 04:02:25;;;;;;;37.85;17.88;;;5.90;99.90;;;5.90;80.31;101768.78;5016462;28;20189;-71
2021/11/18 04:04:59;;;;;;;37.22;18.83;;;5.90;99.90;;;5.92;80.37;101781.06;5016138;28;20555;-69
2021/11/18 04:07:39;;;;;;;25.30;14.38;;;5.90;99.90;;;5.89;80.12;101797.47;5016790;28;20276;-74
2021/11/18 04:10:10;;;;;;;34.22;17.08;;;5.90;99.90;;;5.88;80.55;101806.53;5017835;28;20268;-74
2021/11/18 04:12:42;;;;;;;34.03;17.42;;;5.90;99.90;;;5.97;80.63;101802.09;5017956;28;20245;-72
2021/11/18 04:15:13;;;;;;;36.83;18.35;;;6.00;99.90;;;5.99;80.47;101797.44;5017491;28;20209;-74
2021/11/18 04:17:41;;;;;;;44.03;18.40;;;5.90;99.90;;;5.99;80.49;101786.69;5017438;28;20205;-75
2021/11/18 04:20:16;;;;;;;44.92;17.48;;;6.00;99.90;;;6.03;79.94;101788.91;5016771;28;20379;-74
2021/11/18 04:22:48;;;;;;;38.90;15.15;;;6.00;99.90;;;6.00;80.53;101799.13;5016884;28;20217;-74
2021/11/18 04:25:28;;;;;;;35.33;16.67;;;6.00;99.90;;;6.06;80.20;101809.25;5016576;28;20197;-73
2021/11/18 04:27:59;;;;;;;47.67;18.65;;;6.10;99.90;;;5.88;80.56;101806.53;5018746;28;20197;-72
2021/11/18 04:30:34;;;;;;;31.15;16.65;;;6.00;99.90;;;6.03;80.39;101806.88;5042962;28;20331;-72
2021/11/18 04:33:19;;;;;;;28.75;14.95;;;6.00;99.90;;;6.00;80.15;101816.06;5020444;28;20217;-72
2021/11/18 04:35:48;;;;;;;31.88;16.05;;;6.00;99.90;;;6.01;80.25;101816.91;5016204;28;20190;-71
2021/11/18 04:38:18;;;;;;;35.35;18.67;;;6.00;99.90;;;5.99;80.54;101810.88;5034143;28;20299;-73
2021/11/18 04:40:48;;;;;;;34.08;15.77;;;6.00;99.90;;;5.95;80.57;101826.44;5016833;28;20201;-73
2021/11/18 04:43:19;;;;;;;30.45;16.90;;;6.00;99.90;;;5.98;80.51;101818.06;5017169;28;20209;-72
2021/11/18 04:45:51;;;;;;;30.45;15.65;;;6.00;99.90;;;6.08;80.08;101823.38;5016569;28;20231;-73
2021/11/18 04:48:20;;;;;;;37.25;17.00;;;6.00;99.90;;;6.05;80.52;101821.03;5037059;28;20649;-72
2021/11/18 04:50:48;;;;;;;33.50;17.08;;;6.00;99.90;;;6.09;80.06;101814.34;5029736;28;20198;-73
2021/11/18 04:53:19;;;;;;;28.48;15.75;;;6.10;99.90;;;6.10;80.25;101810.63;5030565;28;20217;-73
2021/11/18 04:55:49;;;;;;;29.77;14.43;;;6.10;99.90;;;6.10;79.98;101810.63;5028217;28;20212;-73
2021/11/18 04:58:17;;;;;;;36.17;16.92;;;6.10;99.90;;;6.09;80.13;101815.19;5030483;28;20198;-73
2021/11/18 05:00:50;;;;;;;27.38;14.48;;;6.10;99.90;;;6.08;80.09;101813.50;5026768;28;20650;-74
2021/11/18 05:03:21;;;;;;;28.13;15.57;;;6.10;99.90;;;6.06;80.53;101820.84;5018220;28;20291;-73
2021/11/18 05:05:55;;;;;;;40.05;15.02;;;6.10;99.90;;;6.09;80.39;101827.78;5013519;28;20205;-73
2021/11/18 05:08:25;;;;;;;30.05;16.08;;;6.10;99.90;;;6.08;80.28;101821.56;5014419;28;20182;-72
2021/11/18 05:10:56;;;;;;;26.00;16.23;;;6.10;99.90;;;6.09;80.35;101822.41;5002674;28;20284;-71
2021/11/18 05:13:29;;;;;;;39.95;16.08;;;6.10;99.90;;;6.00;80.48;101817.94;5014974;28;20253;-72
2021/11/18 05:16:05;;;;;;;37.45;14.60;;;6.10;99.90;;;6.06;80.43;101820.00;5015544;28;20258;-72
2021/11/18 05:18:35;;;;;;;26.25;14.52;;;6.10;99.90;;;6.10;80.38;101810.63;5015473;28;20205;-73
2021/11/18 05:21:06;;;;;;;40.92;17.88;;;6.10;99.90;;;6.07;80.44;101816.31;5015346;28;20193;-72
2021/11/18 05:23:38;;;;;;;31.33;16.08;;;6.10;99.90;;;6.06;80.30;101817.31;5015268;28;20220;-74
2021/11/18 05:26:13;;;;;;;37.35;15.40;;;6.10;99.90;;;5.99;80.29;101819.78;5015327;28;20276;-71
2021/11/18 05:28:44;;;;;;;31.20;16.27;;;6.00;99.90;;;6.05;80.26;101832.59;5015190;28;20232;-72
2021/11/18 05:31:17;;;;;;;29.17;15.95;;;6.00;99.90;;;6.01;80.36;101831.19;5015151;28;20213;-73
2021/11/18 05:33:58;;;;;;;33.08;15.05;;;6.00;99.90;;;6.00;80.58;101826.00;5015212;28;20217;-73
2021/11/18 05:36:34;;;;;;;38.53;15.27;;;6.00;99.90;;;5.95;80.61;101830.97;5011702;28;20201;-72
2021/11/18 05:39:05;;;;;;;29.92;17.33;;;6.00;99.90;;;6.01;80.27;101835.72;4995488;28;20281;-73
2021/11/18 05:41:39;;;;;;;40.97;17.20;;;6.00;99.90;;;5.94;80.61;101827.44;5028757;28;20277;-73
2021/11/18 05:44:08;;;;;;;40.58;16.50;;;6.00;99.90;;;5.94;80.68;101835.50;4995514;28;20288;-73
2021/11/18 05:46:38;;;;;;;32.30;17.77;;;6.00;99.90;;;5.93;80.52;101841.00;4995111;28;20186;-73
2021/11/18 05:49:08;;;;;;;30.65;14.90;;;6.00;99.90;;;5.86;80.95;101842.56;5013156;28;20194;-72
2021/11/18 05:51:38;;;;;;;37.92;15.30;;;5.90;99.90;;;5.89;80.89;101839.63;4995117;28;20221;-74
2021/11/18 05:54:10;;;;;;;35.03;16.80;;;5.90;99.90;;;5.89;80.49;101818.97;5011556;28;20300;-72
2021/11/18 05:56:42;;;;;;;31.67;14.95;;;5.90;99.90;;;5.86;80.94;101823.75;4995598;28;20614;-73
2021/11/18 05:59:11;;;;;;;37.20;16.50;;;5.90;99.90;;;5.85;80.88;101827.44;4995306;28;20677;-73
2021/11/18 06:01:42;;;;;;;29.20;15.48;;;5.90;99.90;;;5.80;80.43;101830.59;5017629;28;20192;-72
2021/11/18 06:04:11;;;;;;;26.50;13.60;;;5.90;99.90;;;5.73;80.82;101840.22;5031309;28;20209;-72
2021/11/18 06:06:49;;;;;;;37.70;17.08;;;5.80;99.90;;;5.83;80.90;101845.53;5016541;28;20278;-73
2021/11/18 06:09:19;;;;;;;32.22;13.60;;;5.90;99.90;;;5.74;80.64;101838.38;5033993;28;20616;-72
2021/11/18 06:11:48;;;;;;;36.15;15.60;;;5.80;99.90;;;5.74;81.16;101851.81;5016701;28;20192;-73
2021/11/18 06:14:19;;;;;;;31.77;14.75;;;5.80;99.90;;;5.74;80.82;101846.44;5016554;28;20224;-73
2021/11/18 06:16:53;;;;;;;29.33;14.00;;;5.80;99.90;;;5.74;80.81;101841.91;5015342;28;20261;-73
2021/11/18 06:19:22;;;;;;;37.42;15.55;;;5.80;99.90;;;5.74;80.97;101844.59;5015404;28;20213;-72
2021/11/18 06:21:53;;;;;;;28.80;16.05;;;5.80;99.90;;;5.77;80.77;101840.75;5015433;28;20204;-73
2021/11/18 06:24:28;;;;;;;33.78;14.00;;;5.80;99.90;;;5.69;80.80;101850.41;5034050;28;20208;-73
2021/11/18 06:26:58;;;;;;;29.77;14.90;;;5.80;99.90;;;5.67;81.26;101852.38;5020243;28;20189;-74
2021/11/18 06:29:34;;;;;;;31.58;13.50;;;5.80;99.90;;;5.75;81.25;101865.09;5024738;28;20280;-72
2021/11/18 06:32:07;;;;;;;36.38;15.25;;;5.80;99.90;;;5.79;81.20;101862.97;5027801;28;20269;-73
2021/11/18 06:34:38;;;;;;;26.55;13.80;;;5.80;99.90;;;5.77;80.84;101867.63;5022622;28;20618;-72
2021/11/18 06:37:07;;;;;;;30.02;13.35;;;5.80;99.90;;;5.81;80.82;101869.03;5019374;28;20185;-73
2021/11/18 06:39:42;;;;;;;30.40;16.05;;;5.80;99.90;;;5.78;80.70;101874.69;5018763;28;20174;-73
2021/11/18 06:42:13;;;;;;;22.52;13.50;;;5.80;99.90;;;5.74;81.28;101867.91;5018489;28;20284;-73
2021/11/18 06:44:51;;;;;;;32.60;15.10;;;5.80;99.90;;;5.71;81.37;101868.22;5018451;28;20213;-72
2021/11/18 06:47:19;;;;;;;31.40;15.48;;;5.70;99.90;;;5.72;80.98;101883.31;5018665;28;20193;-73
2021/11/18 06:49:49;;;;;;;32.95;13.45;;;5.80;99.90;;;5.60;81.28;101888.03;5020607;28;20189;-73
2021/11/18 06:52:17;;;;;;;27.67;13.35;;;5.70;99.90;;;5.72;81.11;101892.22;5023609;28;20616;-73
2021/11/18 06:54:49;;;;;;;33.65;14.80;;;5.70;99.90;;;5.76;81.57;101887.44;5023113;28;20209;-72
2021/11/18 06:57:20;;;;;;;35.75;15.00;;;5.80;99.90;;;5.83;80.88;101880.47;5023615;28;20204;-73
2021/11/18 06:59:50;;;;;;;26.15;13.15;;;5.80;99.90;;;5.83;80.70;101899.25;5021123;28;20217;-73
2021/11/18 07:02:18;;;;;;;29.48;13.55;;;5.80;99.90;;;5.91;80.88;101894.88;5017324;28;20193;-73
2021/11/18 07:04:49;;;;;;;29.65;12.80;;;5.90;99.90;;;5.97;80.52;101898.81;5017391;28;20205;-73
2021/11/18 07:07:18;;;;;;;20.52;13.38;;;5.90;99.90;;;5.99;80.48;101891.47;5017822;28;20220;-72
2021/11/18 07:09:49;;;;;;;34.47;16.35;;;6.00;99.90;;;6.08;79.76;101894.09;5017838;28;20178;-73
2021/11/18 07:12:24;;;;;;;38.78;14.95;;;6.10;99.90;;;6.15;80.11;101899.72;5017630;28;20259;-72
2021/11/18 07:14:53;;;;;;;27.52;13.88;;;6.10;99.90;;;6.16;79.80;101887.97;5017731;28;20626;-73
2021/11/18 07:17:22;;;;;;;25.85;14.15;;;6.10;99.90;;;6.19;79.75;101889.53;5034302;28;20189;-73
2021/11/18 07:19:51;;;;;;;30.38;13.18;;;6.20;99.90;;;6.20;79.96;101892.06;5017950;28;20225;-73
2021/11/18 07:22:23;;;;;;;33.60;16.02;;;6.20;99.90;;;6.33;79.12;101903.31;5018268;28;20202;-72
2021/11/18 07:25:12;;;;;;;25.40;14.70;;;6.30;99.90;;;6.24;79.56;101904.22;5018331;28;20674;-73
2021/11/18 07:27:44;;;;;;;31.52;15.25;;;6.30;99.90;;;6.36;78.98;101894.94;5017340;28;20231;-72
2021/11/18 07:30:15;;;;;;;32.63;12.90;;;6.30;99.90;;;6.52;78.81;101903.22;5017824;28;20272;-73
2021/11/18 07:32:45;;;;;;;29.65;13.82;;;6.40;99.90;;;6.53;78.86;101915.63;5017492;28;20717;-73
2021/11/18 07:35:20;;;;;;;24.95;11.98;;;6.50;99.90;;;6.81;77.84;101907.53;5017450;28;20199;-74
2021/11/18 07:37:49;;;;;;;22.63;10.15;;;6.60;99.90;;;6.88;77.37;101920.22;5018703;28;20190;-72
2021/11/18 07:40:22;;;;;;;25.67;13.10;;;6.80;99.90;;;7.00;77.33;101918.16;5036870;28;20180;-73
2021/11/18 07:42:55;;;;;;;25.73;11.82;;;6.90;99.90;;;7.13;77.15;101921.28;5018455;28;20244;-74
2021/11/18 07:45:42;;;;;;;19.30;10.55;;;7.00;99.90;;;7.26;76.13;101928.97;5036254;28;20192;-73
2021/11/18 07:48:36;;;;;;;25.35;11.40;;;7.10;99.90;;;7.26;76.37;101924.41;5017060;28;20193;-72
2021/11/18 07:51:08;;;;;;;20.08;10.27;;;7.10;99.90;;;7.26;76.24;101928.97;5016911;28;20209;-73
2021/11/18 07:53:37;;;;;;;29.17;11.90;;;7.20;99.90;;;7.35;76.06;101934.28;5017399;28;20217;-74
2021/11/18 07:56:07;;;;;;;23.75;11.48;;;7.30;99.90;;;7.53;75.85;101939.63;5016421;28;20244;-73
2021/11/18 07:58:37;;;;;;;26.65;11.35;;;7.30;99.90;;;7.49;75.53;101929.31;5016945;28;20640;-74
2021/11/18 08:01:08;;;;;;;27.05;12.55;;;7.40;99.90;;;7.54;75.94;101927.00;5017219;28;20193;-73
2021/11/18 08:03:38;;;;;;;19.65;10.80;;;7.40;99.90;;;7.58;75.72;101931.06;5017407;28;20221;-73
2021/11/18 08:06:21;;;;;;;21.58;10.70;;;7.50;99.90;;;7.67;75.56;101935.50;5019720;28;20676;-73
2021/11/18 08:08:58;;;;;;;23.73;10.30;;;7.50;99.90;;;7.66;75.56;101923.03;5021247;28;20196;-73
2021/11/18 08:11:46;;;;;;;19.98;11.30;;;7.60;99.90;;;7.74;75.71;101925.81;5020440;28;20207;-73
2021/11/18 08:14:15;;;;;;;28.65;11.50;;;7.60;99.90;;;7.90;74.82;101925.88;5022394;28;20213;-74
2021/11/18 08:16:47;;;;;;;29.15;11.15;;;7.70;99.90;;;7.78;75.08;101935.25;5018621;28;20261;-73
2021/11/18 08:19:17;;;;;;;21.17;13.60;;;7.70;99.90;;;7.88;75.36;101936.00;5020360;28;20273;-73
2021/11/18 08:21:50;;;;;;;20.85;11.23;;;7.80;99.90;;;7.88;75.23;101938.69;5019959;28;20688;-72
2021/11/18 08:24:24;;;;;;;21.55;11.38;;;7.80;99.90;;;7.84;75.36;101934.63;5040508;28;20212;-73
2021/11/18 08:26:57;;;;;;;25.23;11.10;;;7.80;99.90;;;7.91;75.17;101935.66;5021244;28;20186;-73
2021/11/18 08:29:30;;;;;;;21.77;9.85;;;7.80;99.90;;;7.94;75.14;101935.34;5021308;28;20205;-72
2021/11/18 08:32:00;;;;;;;29.38;11.38;;;7.90;99.90;;;8.01;75.08;101941.78;5018929;28;20585;-73
2021/11/18 08:34:55;;;;;;;40.97;12.27;;;7.90;99.90;;;8.00;75.27;101937.41;5030700;28;20202;-72
2021/11/18 08:37:24;;;;;;;23.45;10.43;;;7.90;99.90;;;8.12;75.21;101944.22;5035861;28;20178;-72
2021/11/18 08:39:52;;;;;;;22.83;10.20;;;8.00;99.90;;;8.07;75.33;101941.16;5016553;28;20291;-73
2021/11/18 08:42:26;;;;;;;25.75;10.73;;;8.00;99.90;;;8.25;75.26;101938.38;5016261;28;20194;-73
2021/11/18 08:44:59;;;;;;;20.23;10.73;;;8.10;99.90;;;8.27;75.12;101945.31;5015859;28;20228;-73
2021/11/18 08:47:31;;;;;;;24.13;10.05;;;8.10;99.90;;;8.28;75.28;101941.56;5014849;28;20264;-73
2021/11/18 08:50:10;;;;;;;22.80;11.05;;;8.10;99.90;;;8.24;75.50;101942.91;5016223;28;20197;-72
2021/11/18 08:52:40;;;;;;;23.65;12.02;;;8.20;99.90;;;8.29;75.44;101946.00;5016269;28;20225;-74
2021/11/18 08:55:18;;;;;;;31.52;11.88;;;8.20;99.90;;;8.47;74.92;101942.38;5015392;28;20243;-73
2021/11/18 08:57:53;;;;;;;29.35;12.57;;;8.30;99.90;;;8.33;75.99;101951.09;5017507;28;20220;-73
2021/11/18 09:00:36;;;;;;;21.85;10.98;;;8.30;99.90;;;8.46;75.88;101946.09;5017161;28;20263;-73
2021/11/18 09:03:18;;;;;;;27.15;11.65;;;8.30;99.90;;;8.49;75.96;101964.63;5017600;28;20213;-73
2021/11/18 09:05:49;;;;;;;20.15;10.48;;;8.30;99.90;;;8.40;76.18;101954.81;5017745;28;20197;-74
2021/11/18 09:08:19;;;;;;;26.77;11.75;;;8.30;99.90;;;8.51;76.34;101959.94;5016066;28;20201;-74
2021/11/18 09:10:54;;;;;;;17.42;10.52;;;8.30;99.90;;;8.43;76.17;101959.88;5015783;28;20471;-74
2021/11/18 09:13:24;;;;;;;19.73;10.50;;;8.30;99.90;;;8.54;76.05;101959.59;5015441;28;20704;-73
2021/11/18 09:15:56;;;;;;;19.52;11.48;;;8.30;99.90;;;8.47;76.23;101959.38;5015662;28;20197;-73
2021/11/18 09:18:26;;;;;;;26.63;12.50;;;8.40;99.90;;;8.42;76.43;101958.22;5015893;28;20217;-72
2021/11/18 09:20:57;;;;;;;22.13;13.13;;;8.40;99.90;;;8.43;76.62;101951.78;5016378;28;20231;-73
2021/11/18 09:23:31;;;;;;;25.80;14.65;;;8.40;99.90;;;8.53;76.56;101961.44;5015673;28;20268;-74
2021/11/18 09:26:07;;;;;;;25.88;13.43;;;8.40;99.90;;;8.60;76.38;101958.94;5016113;28;20204;-73
2021/11/18 09:28:37;;;;;;;24.85;12.95;;;8.50;99.90;;;8.77;75.51;101951.72;5015791;28;20205;-74
2021/11/18 09:31:28;;;;;;;26.00;12.40;;;8.60;99.90;;;8.72;75.75;101944.97;5016532;28;20531;-73
2021/11/18 09:33:58;;;;;;;25.73;11.48;;;8.60;99.90;;;8.90;75.29;101950.28;5016116;28;20264;-72
2021/11/18 09:36:30;;;;;;;22.70;12.30;;;8.70;99.90;;;8.89;75.43;101953.97;5015580;28;20280;-74
2021/11/18 09:39:02;;;;;;;28.55;12.43;;;8.70;99.90;;;8.88;75.34;101946.88;5016816;28;20204;-75
2021/11/18 09:41:48;;;;;;;26.15;11.70;;;8.70;99.90;;;8.97;75.13;101937.78;5016094;28;20243;-74
2021/11/18 09:45:09;;;;;;;21.38;11.77;;;8.80;99.90;;;9.00;75.01;101932.06;4995358;28;20387;-74
2021/11/18 09:48:33;;;;;;;15.45;9.52;;;8.80;99.90;;;8.96;74.98;101944.19;4997102;28;20186;-73
2021/11/18 09:51:42;;;;;;;32.90;14.65;;;8.90;99.90;;;9.11;74.57;101937.13;4954189;28;20187;-75
2021/11/18 09:54:53;;;;;;;26.05;11.95;;;9.00;99.90;;;9.18;74.49;101948.09;5014651;28;20209;-74
2021/11/18 09:58:06;;;;;;;35.40;13.00;;;9.00;99.90;;;9.05;74.88;101936.97;5047538;28;20280;-74
2021/11/18 10:00:55;;;;;;;29.08;13.57;;;9.00;99.90;;;9.03;75.11;101929.03;5014278;28;20263;-73
2021/11/18 10:03:46;;;;;;;28.80;13.00;;;9.00;99.90;;;9.00;75.15;101928.50;5031576;28;20221;-74
2021/11/18 10:06:24;;;;;;;28.90;12.90;;;8.90;99.90;;;9.01;74.95;101931.03;5014965;28;20193;-75
2021/11/18 10:09:05;;;;;;;26.65;11.93;;;8.90;99.90;;;9.00;75.32;101923.97;5015066;28;20189;-74
2021/11/18 10:11:55;;;;;;;19.95;11.55;;;8.90;99.90;;;9.11;75.07;101937.13;5015230;28;20232;-73
2021/11/18 10:14:51;;;;;;;24.55;10.73;;;8.90;99.90;;;9.31;74.70;101924.13;5014988;28;20271;-76
2021/11/18 10:17:30;;;;;;;23.98;12.60;;;9.10;99.90;;;9.43;74.13;101920.09;5015519;28;20620;-75
2021/11/18 10:20:24;;;;;;;32.40;11.98;;;9.20;99.90;;;9.25;74.47;101927.50;5033337;28;20217;-75
2021/11/18 10:22:58;;;;;;;21.90;11.98;;;9.20;99.90;;;9.35;74.36;101938.13;5033647;28;20208;-74
2021/11/18 10:25:32;;;;;;;17.70;11.20;;;9.20;99.90;;;9.39;74.38;101934.09;5033944;28;20186;-75
2021/11/18 10:28:35;;;;;;;23.58;9.90;;;9.20;99.90;;;9.49;74.11;101946.41;5033671;28;20258;-74
2021/11/18 10:31:25;;;;;;;28.02;11.90;;;9.30;99.90;;;9.62;73.80;101948.63;5095276;22;20282;-72
2021/11/18 10:34:12;;;;;;;28.15;13.52;;;9.40;99.90;;;9.70;73.43;101948.59;5041453;28;20213;-71
2021/11/18 10:37:07;;;;;;;37.75;11.23;;;9.40;99.90;;;9.74;73.28;101952.63;5014166;28;20197;-72
2021/11/18 10:40:06;;;;;;;20.63;9.88;;;9.60;99.90;;;9.99;72.53;101951.59;5014060;28;20255;-72
2021/11/18 10:42:39;;;;;;;22.55;10.30;;;9.70;99.90;;;9.88;72.83;101948.38;5026875;28;20240;-72